Burleigh, New Jersey
Current Conditions -  °F | °C
As of 12:15 PM on Friday 24 Oct 2014 (Local Time) from KWWD Reporting Station
Overcast Overcast  
Wind Chill: 63°   Ceiling: 3700
Heat Index: 63°   Visibility: 10mi
Dew Point: 46°   Wind: 12mph
Humidity: 55%   Direction: 300°WNW
Pressure: 29.88"   Gusts: 16mph
Location:  39.1108°N, 74.8241°W
Report Text: KWWD 241615Z AUTO 30010G14KT 10SM OVC037 17/08 A2988 RMK AO1
Loading
Personal Weather Stations






























Interactive Weather Map
Tropical Storm Tracking
New forecast layout! Learn more

10-Day Weather Forecast

Advertisements
Track Severe Weather on mobile